sensor_id;sensor_type;location;lat;lon;timestamp;P1;durP1;ratioP1;P2;durP2;ratioP2
19645;SDS011;9971;52.446;13.452;2024-02-26T00:01:56;9.28;;;6.42;;
19645;SDS011;9971;52.446;13.452;2024-02-26T00:06:58;6.90;;;5.87;;
19645;SDS011;9971;52.446;13.452;2024-02-26T00:12:01;6.42;;;5.83;;
19645;SDS011;9971;52.446;13.452;2024-02-26T00:17:03;6.58;;;5.70;;
19645;SDS011;9971;52.446;13.452;2024-02-26T00:22:06;6.47;;;4.97;;
19645;SDS011;9971;52.446;13.452;2024-02-26T00:27:08;5.70;;;5.12;;
19645;SDS011;9971;52.446;13.452;2024-02-26T00:32:11;5.10;;;4.55;;
19645;SDS011;9971;52.446;13.452;2024-02-26T00:37:13;5.42;;;4.55;;
19645;SDS011;9971;52.446;13.452;2024-02-26T00:42:16;4.80;;;4.30;;
19645;SDS011;9971;52.446;13.452;2024-02-26T00:47:18;4.78;;;4.03;;
19645;SDS011;9971;52.446;13.452;2024-02-26T00:52:21;4.22;;;3.83;;
19645;SDS011;9971;52.446;13.452;2024-02-26T00:57:23;4.97;;;4.47;;
19645;SDS011;9971;52.446;13.452;2024-02-26T01:02:26;4.87;;;4.40;;
19645;SDS011;9971;52.446;13.452;2024-02-26T01:07:28;4.40;;;4.00;;
19645;SDS011;9971;52.446;13.452;2024-02-26T01:12:31;4.15;;;3.72;;
19645;SDS011;9971;52.446;13.452;2024-02-26T01:17:33;3.98;;;3.55;;
19645;SDS011;9971;52.446;13.452;2024-02-26T01:22:36;4.17;;;3.47;;
19645;SDS011;9971;52.446;13.452;2024-02-26T01:27:38;4.20;;;3.80;;
19645;SDS011;9971;52.446;13.452;2024-02-26T01:32:40;3.83;;;3.43;;
19645;SDS011;9971;52.446;13.452;2024-02-26T01:37:42;3.37;;;3.08;;
19645;SDS011;9971;52.446;13.452;2024-02-26T01:42:45;3.20;;;3.00;;
19645;SDS011;9971;52.446;13.452;2024-02-26T01:47:49;3.20;;;2.93;;
19645;SDS011;9971;52.446;13.452;2024-02-26T01:52:50;3.77;;;3.47;;
19645;SDS011;9971;52.446;13.452;2024-02-26T01:57:52;3.53;;;3.20;;
19645;SDS011;9971;52.446;13.452;2024-02-26T02:02:53;3.70;;;3.40;;
19645;SDS011;9971;52.446;13.452;2024-02-26T02:07:55;3.63;;;3.33;;
19645;SDS011;9971;52.446;13.452;2024-02-26T02:12:58;3.50;;;3.20;;
19645;SDS011;9971;52.446;13.452;2024-02-26T02:18:00;4.10;;;3.17;;
19645;SDS011;9971;52.446;13.452;2024-02-26T02:23:02;3.50;;;3.20;;
19645;SDS011;9971;52.446;13.452;2024-02-26T02:28:04;3.27;;;2.98;;
19645;SDS011;9971;52.446;13.452;2024-02-26T02:33:07;2.77;;;2.58;;
19645;SDS011;9971;52.446;13.452;2024-02-26T02:38:09;3.23;;;2.90;;
19645;SDS011;9971;52.446;13.452;2024-02-26T02:43:11;2.65;;;2.45;;
19645;SDS011;9971;52.446;13.452;2024-02-26T02:48:14;2.55;;;2.35;;
19645;SDS011;9971;52.446;13.452;2024-02-26T02:53:16;2.90;;;2.70;;
19645;SDS011;9971;52.446;13.452;2024-02-26T02:58:19;2.50;;;2.30;;
19645;SDS011;9971;52.446;13.452;2024-02-26T03:03:21;2.50;;;2.30;;
19645;SDS011;9971;52.446;13.452;2024-02-26T03:08:23;2.58;;;2.37;;
19645;SDS011;9971;52.446;13.452;2024-02-26T03:13:25;2.47;;;2.27;;
19645;SDS011;9971;52.446;13.452;2024-02-26T03:18:27;2.12;;;1.92;;
19645;SDS011;9971;52.446;13.452;2024-02-26T03:23:30;2.45;;;2.25;;
19645;SDS011;9971;52.446;13.452;2024-02-26T03:28:32;2.45;;;2.25;;
19645;SDS011;9971;52.446;13.452;2024-02-26T03:33:35;2.65;;;2.22;;
19645;SDS011;9971;52.446;13.452;2024-02-26T03:38:37;2.07;;;1.90;;
19645;SDS011;9971;52.446;13.452;2024-02-26T03:43:40;2.15;;;2.05;;
19645;SDS011;9971;52.446;13.452;2024-02-26T03:48:42;2.70;;;2.50;;
19645;SDS011;9971;52.446;13.452;2024-02-26T03:53:45;3.95;;;2.50;;
19645;SDS011;9971;52.446;13.452;2024-02-26T03:58:47;3.47;;;2.90;;
19645;SDS011;9971;52.446;13.452;2024-02-26T04:03:49;2.45;;;2.22;;
19645;SDS011;9971;52.446;13.452;2024-02-26T04:08:52;2.55;;;2.20;;
19645;SDS011;9971;52.446;13.452;2024-02-26T04:13:54;2.85;;;2.37;;
19645;SDS011;9971;52.446;13.452;2024-02-26T04:18:56;2.55;;;2.35;;
19645;SDS011;9971;52.446;13.452;2024-02-26T04:23:59;2.08;;;1.98;;
19645;SDS011;9971;52.446;13.452;2024-02-26T04:29:01;3.00;;;2.33;;
19645;SDS011;9971;52.446;13.452;2024-02-26T04:34:04;2.42;;;2.17;;
19645;SDS011;9971;52.446;13.452;2024-02-26T04:39:06;2.22;;;2.05;;
19645;SDS011;9971;52.446;13.452;2024-02-26T04:44:09;2.77;;;2.57;;
19645;SDS011;9971;52.446;13.452;2024-02-26T04:49:11;0.85;;;0.85;;
19645;SDS011;9971;52.446;13.452;2024-02-26T04:54:14;0.53;;;0.53;;
19645;SDS011;9971;52.446;13.452;2024-02-26T04:59:16;0.30;;;0.30;;
19645;SDS011;9971;52.446;13.452;2024-02-26T05:04:19;1.47;;;0.68;;
19645;SDS011;9971;52.446;13.452;2024-02-26T05:09:21;0.30;;;0.30;;
19645;SDS011;9971;52.446;13.452;2024-02-26T05:14:24;0.40;;;0.40;;
19645;SDS011;9971;52.446;13.452;2024-02-26T05:19:27;0.42;;;0.42;;
19645;SDS011;9971;52.446;13.452;2024-02-26T05:24:29;0.57;;;0.57;;
19645;SDS011;9971;52.446;13.452;2024-02-26T05:29:32;0.40;;;0.40;;
19645;SDS011;9971;52.446;13.452;2024-02-26T05:34:34;0.50;;;0.50;;
19645;SDS011;9971;52.446;13.452;2024-02-26T05:39:36;0.50;;;0.50;;
19645;SDS011;9971;52.446;13.452;2024-02-26T05:44:39;0.40;;;0.40;;
19645;SDS011;9971;52.446;13.452;2024-02-26T05:49:41;0.40;;;0.40;;
19645;SDS011;9971;52.446;13.452;2024-02-26T05:54:43;0.53;;;0.53;;
19645;SDS011;9971;52.446;13.452;2024-02-26T05:59:46;0.50;;;0.50;;
19645;SDS011;9971;52.446;13.452;2024-02-26T06:04:49;0.50;;;0.50;;
19645;SDS011;9971;52.446;13.452;2024-02-26T06:09:51;0.50;;;0.50;;
19645;SDS011;9971;52.446;13.452;2024-02-26T06:14:54;0.30;;;0.30;;
19645;SDS011;9971;52.446;13.452;2024-02-26T06:19:56;0.68;;;0.68;;
19645;SDS011;9971;52.446;13.452;2024-02-26T06:24:59;0.25;;;0.25;;
19645;SDS011;9971;52.446;13.452;2024-02-26T06:30:01;0.30;;;0.30;;
19645;SDS011;9971;52.446;13.452;2024-02-26T06:35:04;0.37;;;0.37;;
19645;SDS011;9971;52.446;13.452;2024-02-26T06:40:07;0.50;;;0.50;;
19645;SDS011;9971;52.446;13.452;2024-02-26T06:45:10;0.40;;;0.40;;
19645;SDS011;9971;52.446;13.452;2024-02-26T06:50:13;0.20;;;0.20;;
19645;SDS011;9971;52.446;13.452;2024-02-26T06:55:15;0.37;;;0.37;;
19645;SDS011;9971;52.446;13.452;2024-02-26T07:00:18;0.50;;;0.50;;
19645;SDS011;9971;52.446;13.452;2024-02-26T07:05:21;0.62;;;0.62;;
19645;SDS011;9971;52.446;13.452;2024-02-26T07:10:23;0.50;;;0.50;;
19645;SDS011;9971;52.446;13.452;2024-02-26T07:15:26;0.57;;;0.57;;
19645;SDS011;9971;52.446;13.452;2024-02-26T07:20:29;0.28;;;0.28;;
19645;SDS011;9971;52.446;13.452;2024-02-26T07:25:31;0.47;;;0.47;;
19645;SDS011;9971;52.446;13.452;2024-02-26T07:30:33;0.57;;;0.57;;
19645;SDS011;9971;52.446;13.452;2024-02-26T07:35:36;0.37;;;0.37;;
19645;SDS011;9971;52.446;13.452;2024-02-26T07:40:39;0.50;;;0.50;;
19645;SDS011;9971;52.446;13.452;2024-02-26T07:45:41;0.50;;;0.50;;
19645;SDS011;9971;52.446;13.452;2024-02-26T07:50:44;0.42;;;0.42;;
19645;SDS011;9971;52.446;13.452;2024-02-26T07:55:46;0.40;;;0.40;;
19645;SDS011;9971;52.446;13.452;2024-02-26T08:00:49;0.40;;;0.40;;
19645;SDS011;9971;52.446;13.452;2024-02-26T08:05:51;0.33;;;0.33;;
19645;SDS011;9971;52.446;13.452;2024-02-26T08:10:54;0.40;;;0.40;;
19645;SDS011;9971;52.446;13.452;2024-02-26T08:15:56;0.37;;;0.37;;
19645;SDS011;9971;52.446;13.452;2024-02-26T08:20:59;0.47;;;0.47;;
19645;SDS011;9971;52.446;13.452;2024-02-26T08:26:01;0.30;;;0.30;;
19645;SDS011;9971;52.446;13.452;2024-02-26T08:31:04;0.20;;;0.20;;
19645;SDS011;9971;52.446;13.452;2024-02-26T08:36:06;0.57;;;0.57;;
19645;SDS011;9971;52.446;13.452;2024-02-26T08:41:09;0.50;;;0.50;;
19645;SDS011;9971;52.446;13.452;2024-02-26T08:46:12;0.40;;;0.40;;
19645;SDS011;9971;52.446;13.452;2024-02-26T08:51:13;0.57;;;0.57;;
19645;SDS011;9971;52.446;13.452;2024-02-26T08:56:15;0.68;;;0.68;;
19645;SDS011;9971;52.446;13.452;2024-02-26T09:01:18;0.60;;;0.60;;
19645;SDS011;9971;52.446;13.452;2024-02-26T09:06:20;0.30;;;0.30;;
19645;SDS011;9971;52.446;13.452;2024-02-26T09:11:23;0.50;;;0.50;;
19645;SDS011;9971;52.446;13.452;2024-02-26T09:16:27;0.50;;;0.50;;
19645;SDS011;9971;52.446;13.452;2024-02-26T09:21:29;0.60;;;0.60;;
19645;SDS011;9971;52.446;13.452;2024-02-26T09:26:31;0.40;;;0.40;;
19645;SDS011;9971;52.446;13.452;2024-02-26T09:31:34;0.47;;;0.47;;
19645;SDS011;9971;52.446;13.452;2024-02-26T09:36:36;0.47;;;0.47;;
19645;SDS011;9971;52.446;13.452;2024-02-26T09:41:39;0.80;;;0.72;;
19645;SDS011;9971;52.446;13.452;2024-02-26T09:46:41;0.72;;;0.72;;
19645;SDS011;9971;52.446;13.452;2024-02-26T09:51:44;0.53;;;0.53;;
19645;SDS011;9971;52.446;13.452;2024-02-26T09:56:46;0.53;;;0.30;;
19645;SDS011;9971;52.446;13.452;2024-02-26T10:01:48;0.60;;;0.60;;
19645;SDS011;9971;52.446;13.452;2024-02-26T10:06:51;0.40;;;0.40;;
19645;SDS011;9971;52.446;13.452;2024-02-26T10:11:52;0.40;;;0.40;;
19645;SDS011;9971;52.446;13.452;2024-02-26T10:16:54;0.55;;;0.55;;
19645;SDS011;9971;52.446;13.452;2024-02-26T10:21:57;0.33;;;0.33;;
19645;SDS011;9971;52.446;13.452;2024-02-26T10:26:59;0.60;;;0.60;;
19645;SDS011;9971;52.446;13.452;2024-02-26T10:32:01;0.37;;;0.37;;
19645;SDS011;9971;52.446;13.452;2024-02-26T10:37:04;0.37;;;0.37;;
19645;SDS011;9971;52.446;13.452;2024-02-26T10:42:06;0.30;;;0.30;;
19645;SDS011;9971;52.446;13.452;2024-02-26T10:47:08;0.50;;;0.50;;
19645;SDS011;9971;52.446;13.452;2024-02-26T10:52:10;0.40;;;0.40;;
19645;SDS011;9971;52.446;13.452;2024-02-26T10:57:12;0.80;;;0.80;;
19645;SDS011;9971;52.446;13.452;2024-02-26T11:02:14;1.20;;;0.50;;
19645;SDS011;9971;52.446;13.452;2024-02-26T11:07:16;0.67;;;0.67;;
19645;SDS011;9971;52.446;13.452;2024-02-26T11:12:18;0.40;;;0.40;;
19645;SDS011;9971;52.446;13.452;2024-02-26T11:17:21;0.47;;;0.47;;
19645;SDS011;9971;52.446;13.452;2024-02-26T11:22:22;0.53;;;0.53;;
19645;SDS011;9971;52.446;13.452;2024-02-26T11:27:27;0.75;;;0.75;;
19645;SDS011;9971;52.446;13.452;2024-02-26T11:32:28;0.62;;;0.62;;
19645;SDS011;9971;52.446;13.452;2024-02-26T11:37:30;0.30;;;0.30;;
19645;SDS011;9971;52.446;13.452;2024-02-26T11:42:32;0.40;;;0.40;;
19645;SDS011;9971;52.446;13.452;2024-02-26T11:47:35;0.47;;;0.47;;
19645;SDS011;9971;52.446;13.452;2024-02-26T11:52:37;0.40;;;0.40;;
19645;SDS011;9971;52.446;13.452;2024-02-26T11:57:40;0.40;;;0.40;;
19645;SDS011;9971;52.446;13.452;2024-02-26T12:02:44;0.33;;;0.33;;
19645;SDS011;9971;52.446;13.452;2024-02-26T12:07:47;0.40;;;0.40;;
19645;SDS011;9971;52.446;13.452;2024-02-26T12:12:49;0.40;;;0.40;;
19645;SDS011;9971;52.446;13.452;2024-02-26T12:17:51;0.60;;;0.60;;
19645;SDS011;9971;52.446;13.452;2024-02-26T12:22:53;0.40;;;0.40;;
19645;SDS011;9971;52.446;13.452;2024-02-26T12:27:55;0.33;;;0.30;;
19645;SDS011;9971;52.446;13.452;2024-02-26T12:32:57;0.60;;;0.60;;
19645;SDS011;9971;52.446;13.452;2024-02-26T12:37:59;0.60;;;0.60;;
19645;SDS011;9971;52.446;13.452;2024-02-26T12:43:01;0.50;;;0.50;;
19645;SDS011;9971;52.446;13.452;2024-02-26T12:48:03;0.53;;;0.53;;
19645;SDS011;9971;52.446;13.452;2024-02-26T12:53:05;0.30;;;0.30;;
19645;SDS011;9971;52.446;13.452;2024-02-26T12:58:07;0.60;;;0.60;;
19645;SDS011;9971;52.446;13.452;2024-02-26T13:03:09;0.30;;;0.30;;
19645;SDS011;9971;52.446;13.452;2024-02-26T13:08:18;0.60;;;0.60;;
19645;SDS011;9971;52.446;13.452;2024-02-26T13:13:19;0.40;;;0.30;;
19645;SDS011;9971;52.446;13.452;2024-02-26T13:18:22;0.50;;;0.50;;
19645;SDS011;9971;52.446;13.452;2024-02-26T13:23:24;0.30;;;0.30;;
19645;SDS011;9971;52.446;13.452;2024-02-26T13:28:26;0.23;;;0.23;;
19645;SDS011;9971;52.446;13.452;2024-02-26T13:33:29;0.68;;;0.50;;
19645;SDS011;9971;52.446;13.452;2024-02-26T13:38:31;1.20;;;0.50;;
19645;SDS011;9971;52.446;13.452;2024-02-26T13:43:33;0.40;;;0.37;;
19645;SDS011;9971;52.446;13.452;2024-02-26T13:48:36;0.57;;;0.50;;
19645;SDS011;9971;52.446;13.452;2024-02-26T13:53:38;0.67;;;0.60;;
19645;SDS011;9971;52.446;13.452;2024-02-26T13:58:40;1.05;;;0.60;;
19645;SDS011;9971;52.446;13.452;2024-02-26T14:03:43;0.30;;;0.30;;
19645;SDS011;9971;52.446;13.452;2024-02-26T14:08:45;0.68;;;0.68;;
19645;SDS011;9971;52.446;13.452;2024-02-26T14:13:48;0.62;;;0.60;;
19645;SDS011;9971;52.446;13.452;2024-02-26T14:18:50;0.55;;;0.55;;
19645;SDS011;9971;52.446;13.452;2024-02-26T14:23:53;0.35;;;0.35;;
19645;SDS011;9971;52.446;13.452;2024-02-26T14:28:55;0.30;;;0.25;;
19645;SDS011;9971;52.446;13.452;2024-02-26T14:33:57;0.30;;;0.30;;
19645;SDS011;9971;52.446;13.452;2024-02-26T14:39:00;0.45;;;0.45;;
19645;SDS011;9971;52.446;13.452;2024-02-26T14:44:02;0.47;;;0.42;;
19645;SDS011;9971;52.446;13.452;2024-02-26T14:49:05;0.40;;;0.40;;
19645;SDS011;9971;52.446;13.452;2024-02-26T14:54:08;0.40;;;0.40;;
19645;SDS011;9971;52.446;13.452;2024-02-26T14:59:10;0.35;;;0.35;;
19645;SDS011;9971;52.446;13.452;2024-02-26T15:04:13;0.37;;;0.37;;
19645;SDS011;9971;52.446;13.452;2024-02-26T15:09:15;0.35;;;0.35;;
19645;SDS011;9971;52.446;13.452;2024-02-26T15:14:18;0.40;;;0.40;;
19645;SDS011;9971;52.446;13.452;2024-02-26T15:19:20;0.28;;;0.28;;
19645;SDS011;9971;52.446;13.452;2024-02-26T15:24:23;0.45;;;0.45;;
19645;SDS011;9971;52.446;13.452;2024-02-26T15:29:25;0.20;;;0.20;;
19645;SDS011;9971;52.446;13.452;2024-02-26T15:34:28;0.50;;;0.50;;
19645;SDS011;9971;52.446;13.452;2024-02-26T15:39:30;0.68;;;0.68;;
19645;SDS011;9971;52.446;13.452;2024-02-26T15:44:32;0.35;;;0.30;;
19645;SDS011;9971;52.446;13.452;2024-02-26T15:49:35;0.10;;;0.10;;
19645;SDS011;9971;52.446;13.452;2024-02-26T15:54:38;0.28;;;0.25;;
19645;SDS011;9971;52.446;13.452;2024-02-26T15:59:40;2.02;;;0.85;;
19645;SDS011;9971;52.446;13.452;2024-02-26T16:04:43;0.88;;;0.88;;
19645;SDS011;9971;52.446;13.452;2024-02-26T16:09:49;0.42;;;0.42;;
19645;SDS011;9971;52.446;13.452;2024-02-26T16:14:49;0.20;;;0.20;;
19645;SDS011;9971;52.446;13.452;2024-02-26T16:19:50;0.20;;;0.20;;
19645;SDS011;9971;52.446;13.452;2024-02-26T16:24:53;0.17;;;0.17;;
19645;SDS011;9971;52.446;13.452;2024-02-26T16:29:55;0.60;;;0.60;;
19645;SDS011;9971;52.446;13.452;2024-02-26T16:34:58;0.30;;;0.30;;
19645;SDS011;9971;52.446;13.452;2024-02-26T16:40:00;0.60;;;0.33;;
19645;SDS011;9971;52.446;13.452;2024-02-26T16:45:02;0.60;;;0.60;;
19645;SDS011;9971;52.446;13.452;2024-02-26T16:50:05;0.20;;;0.20;;
19645;SDS011;9971;52.446;13.452;2024-02-26T16:55:08;0.50;;;0.50;;
19645;SDS011;9971;52.446;13.452;2024-02-26T17:00:10;0.25;;;0.25;;
19645;SDS011;9971;52.446;13.452;2024-02-26T17:05:13;0.42;;;0.42;;
19645;SDS011;9971;52.446;13.452;2024-02-26T17:10:15;0.30;;;0.30;;
19645;SDS011;9971;52.446;13.452;2024-02-26T17:15:17;0.50;;;0.50;;
19645;SDS011;9971;52.446;13.452;2024-02-26T17:20:20;0.42;;;0.42;;
19645;SDS011;9971;52.446;13.452;2024-02-26T17:25:22;0.50;;;0.50;;
19645;SDS011;9971;52.446;13.452;2024-02-26T17:30:26;0.30;;;0.30;;
19645;SDS011;9971;52.446;13.452;2024-02-26T17:35:28;0.10;;;0.10;;
19645;SDS011;9971;52.446;13.452;2024-02-26T17:40:30;0.20;;;0.20;;
19645;SDS011;9971;52.446;13.452;2024-02-26T17:45:33;0.55;;;0.40;;
19645;SDS011;9971;52.446;13.452;2024-02-26T17:50:35;4.30;;;3.40;;
19645;SDS011;9971;52.446;13.452;2024-02-26T17:55:37;6.53;;;5.83;;
19645;SDS011;9971;52.446;13.452;2024-02-26T18:00:40;5.62;;;5.12;;
19645;SDS011;9971;52.446;13.452;2024-02-26T18:05:42;6.72;;;5.00;;
19645;SDS011;9971;52.446;13.452;2024-02-26T18:10:45;7.42;;;5.25;;
19645;SDS011;9971;52.446;13.452;2024-02-26T18:15:48;6.73;;;5.97;;
19645;SDS011;9971;52.446;13.452;2024-02-26T18:20:50;5.62;;;4.72;;
19645;SDS011;9971;52.446;13.452;2024-02-26T18:25:53;5.33;;;3.87;;
19645;SDS011;9971;52.446;13.452;2024-02-26T18:30:55;7.80;;;6.10;;
19645;SDS011;9971;52.446;13.452;2024-02-26T18:35:57;6.60;;;5.83;;
19645;SDS011;9971;52.446;13.452;2024-02-26T18:41:00;4.72;;;4.10;;
19645;SDS011;9971;52.446;13.452;2024-02-26T18:46:02;6.28;;;5.40;;
19645;SDS011;9971;52.446;13.452;2024-02-26T18:51:05;5.28;;;3.85;;
19645;SDS011;9971;52.446;13.452;2024-02-26T18:56:07;5.92;;;4.78;;
19645;SDS011;9971;52.446;13.452;2024-02-26T19:01:09;4.80;;;4.40;;
19645;SDS011;9971;52.446;13.452;2024-02-26T19:06:12;9.25;;;6.80;;
19645;SDS011;9971;52.446;13.452;2024-02-26T19:11:14;8.35;;;7.55;;
19645;SDS011;9971;52.446;13.452;2024-02-26T19:16:16;8.05;;;6.83;;
19645;SDS011;9971;52.446;13.452;2024-02-26T19:21:18;7.33;;;6.60;;
19645;SDS011;9971;52.446;13.452;2024-02-26T19:26:20;7.57;;;6.77;;
19645;SDS011;9971;52.446;13.452;2024-02-26T19:31:22;7.08;;;6.35;;
19645;SDS011;9971;52.446;13.452;2024-02-26T19:36:25;6.90;;;6.20;;
19645;SDS011;9971;52.446;13.452;2024-02-26T19:41:27;7.62;;;6.40;;
19645;SDS011;9971;52.446;13.452;2024-02-26T19:46:30;6.95;;;6.25;;
19645;SDS011;9971;52.446;13.452;2024-02-26T19:51:32;6.90;;;6.15;;
19645;SDS011;9971;52.446;13.452;2024-02-26T19:56:34;7.87;;;5.60;;
19645;SDS011;9971;52.446;13.452;2024-02-26T20:01:37;7.12;;;6.45;;
19645;SDS011;9971;52.446;13.452;2024-02-26T20:06:40;12.13;;;10.88;;
19645;SDS011;9971;52.446;13.452;2024-02-26T20:11:42;6.47;;;5.87;;
19645;SDS011;9971;52.446;13.452;2024-02-26T20:16:44;7.20;;;6.50;;
19645;SDS011;9971;52.446;13.452;2024-02-26T20:21:46;11.00;;;7.75;;
19645;SDS011;9971;52.446;13.452;2024-02-26T20:26:49;7.30;;;6.17;;
19645;SDS011;9971;52.446;13.452;2024-02-26T20:31:51;6.47;;;5.87;;
19645;SDS011;9971;52.446;13.452;2024-02-26T20:36:54;6.53;;;5.85;;
19645;SDS011;9971;52.446;13.452;2024-02-26T20:41:56;6.50;;;5.92;;
19645;SDS011;9971;52.446;13.452;2024-02-26T20:46:58;7.20;;;6.50;;
19645;SDS011;9971;52.446;13.452;2024-02-26T20:52:01;7.75;;;6.22;;
19645;SDS011;9971;52.446;13.452;2024-02-26T20:57:04;8.15;;;6.03;;
19645;SDS011;9971;52.446;13.452;2024-02-26T21:02:06;8.18;;;6.65;;
19645;SDS011;9971;52.446;13.452;2024-02-26T21:07:08;7.22;;;6.53;;
19645;SDS011;9971;52.446;13.452;2024-02-26T21:12:10;6.60;;;5.97;;
19645;SDS011;9971;52.446;13.452;2024-02-26T21:17:13;6.65;;;6.00;;
19645;SDS011;9971;52.446;13.452;2024-02-26T21:22:15;7.03;;;6.22;;
19645;SDS011;9971;52.446;13.452;2024-02-26T21:27:18;7.60;;;6.17;;
19645;SDS011;9971;52.446;13.452;2024-02-26T21:32:20;6.50;;;5.75;;
19645;SDS011;9971;52.446;13.452;2024-02-26T21:37:22;6.97;;;6.27;;
19645;SDS011;9971;52.446;13.452;2024-02-26T21:42:25;7.62;;;6.10;;
19645;SDS011;9971;52.446;13.452;2024-02-26T21:47:27;8.75;;;6.85;;
19645;SDS011;9971;52.446;13.452;2024-02-26T21:52:30;6.25;;;5.62;;
19645;SDS011;9971;52.446;13.452;2024-02-26T21:57:33;7.45;;;6.45;;
19645;SDS011;9971;52.446;13.452;2024-02-26T22:02:35;7.65;;;5.87;;
19645;SDS011;9971;52.446;13.452;2024-02-26T22:07:39;6.03;;;5.42;;
19645;SDS011;9971;52.446;13.452;2024-02-26T22:12:40;5.97;;;5.37;;
19645;SDS011;9971;52.446;13.452;2024-02-26T22:17:43;5.37;;;4.87;;
19645;SDS011;9971;52.446;13.452;2024-02-26T22:22:45;6.45;;;4.90;;
19645;SDS011;9971;52.446;13.452;2024-02-26T22:27:48;6.50;;;5.22;;
19645;SDS011;9971;52.446;13.452;2024-02-26T22:32:50;6.67;;;4.97;;
19645;SDS011;9971;52.446;13.452;2024-02-26T22:37:52;7.67;;;6.03;;
19645;SDS011;9971;52.446;13.452;2024-02-26T22:42:55;5.75;;;5.25;;
19645;SDS011;9971;52.446;13.452;2024-02-26T22:47:57;5.58;;;4.90;;
19645;SDS011;9971;52.446;13.452;2024-02-26T22:52:59;5.23;;;4.73;;
19645;SDS011;9971;52.446;13.452;2024-02-26T22:58:02;5.83;;;5.22;;
19645;SDS011;9971;52.446;13.452;2024-02-26T23:03:04;5.27;;;4.80;;
19645;SDS011;9971;52.446;13.452;2024-02-26T23:08:07;7.17;;;5.15;;
19645;SDS011;9971;52.446;13.452;2024-02-26T23:13:09;5.70;;;4.77;;
19645;SDS011;9971;52.446;13.452;2024-02-26T23:18:11;5.10;;;4.60;;
19645;SDS011;9971;52.446;13.452;2024-02-26T23:23:13;4.85;;;4.45;;
19645;SDS011;9971;52.446;13.452;2024-02-26T23:28:16;4.78;;;4.37;;
19645;SDS011;9971;52.446;13.452;2024-02-26T23:33:18;4.85;;;4.35;;
19645;SDS011;9971;52.446;13.452;2024-02-26T23:38:20;5.85;;;4.85;;
19645;SDS011;9971;52.446;13.452;2024-02-26T23:43:23;5.30;;;4.33;;
19645;SDS011;9971;52.446;13.452;2024-02-26T23:48:25;4.92;;;4.42;;
19645;SDS011;9971;52.446;13.452;2024-02-26T23:53:28;5.20;;;4.70;;
19645;SDS011;9971;52.446;13.452;2024-02-26T23:58:30;5.10;;;4.60;;
